sensor_id;sensor_type;location;lat;lon;timestamp;pressure;altitude;pressure_sealevel;temperature;humidity
58753;BME280;44525;46.052;13.610;2023-01-28T00:00:52;100635.00;;;3.67;nan
58753;BME280;44525;46.052;13.610;2023-01-28T00:03:18;100636.06;;;3.42;nan
58753;BME280;44525;46.052;13.610;2023-01-28T00:05:43;100639.81;;;3.41;nan
58753;BME280;44525;46.052;13.610;2023-01-28T00:08:09;100635.59;;;3.33;nan
58753;BME280;44525;46.052;13.610;2023-01-28T00:10:36;100625.78;;;3.15;nan
58753;BME280;44525;46.052;13.610;2023-01-28T00:13:04;100629.31;;;3.28;nan
58753;BME280;44525;46.052;13.610;2023-01-28T00:15:29;100634.78;;;3.33;nan
58753;BME280;44525;46.052;13.610;2023-01-28T00:17:55;100629.88;;;3.54;nan
58753;BME280;44525;46.052;13.610;2023-01-28T00:20:20;100630.94;;;3.29;nan
58753;BME280;44525;46.052;13.610;2023-01-28T00:22:48;100635.81;;;3.20;nan
58753;BME280;44525;46.052;13.610;2023-01-28T00:25:15;100631.63;;;3.36;nan
58753;BME280;44525;46.052;13.610;2023-01-28T00:27:40;100632.34;;;3.55;nan
58753;BME280;44525;46.052;13.610;2023-01-28T00:30:06;100640.72;;;3.23;nan
58753;BME280;44525;46.052;13.610;2023-01-28T00:32:32;100629.31;;;3.40;nan
58753;BME280;44525;46.052;13.610;2023-01-28T00:34:57;100621.25;;;3.51;nan
58753;BME280;44525;46.052;13.610;2023-01-28T00:37:22;100635.59;;;3.22;nan
58753;BME280;44525;46.052;13.610;2023-01-28T00:39:48;100631.53;;;3.19;nan
58753;BME280;44525;46.052;13.610;2023-01-28T00:42:13;100639.69;;;3.36;nan
58753;BME280;44525;46.052;13.610;2023-01-28T00:44:39;100631.03;;;3.10;nan
58753;BME280;44525;46.052;13.610;2023-01-28T00:47:04;100634.19;;;3.07;nan
58753;BME280;44525;46.052;13.610;2023-01-28T00:49:29;100633.25;;;3.13;nan
58753;BME280;44525;46.052;13.610;2023-01-28T00:51:55;100624.50;;;3.06;nan
58753;BME280;44525;46.052;13.610;2023-01-28T00:54:20;100632.53;;;2.94;nan
58753;BME280;44525;46.052;13.610;2023-01-28T00:56:46;100630.88;;;2.81;nan
58753;BME280;44525;46.052;13.610;2023-01-28T00:59:11;100626.59;;;3.04;nan
58753;BME280;44525;46.052;13.610;2023-01-28T01:01:38;100625.91;;;2.97;nan
58753;BME280;44525;46.052;13.610;2023-01-28T01:04:03;100636.63;;;2.97;nan
58753;BME280;44525;46.052;13.610;2023-01-28T01:06:38;100633.56;;;2.93;nan
58753;BME280;44525;46.052;13.610;2023-01-28T01:09:06;100631.97;;;2.92;nan
58753;BME280;44525;46.052;13.610;2023-01-28T01:11:32;100630.59;;;3.13;nan
58753;BME280;44525;46.052;13.610;2023-01-28T01:13:59;100637.53;;;3.03;nan
58753;BME280;44525;46.052;13.610;2023-01-28T01:16:27;100646.75;;;2.95;nan
58753;BME280;44525;46.052;13.610;2023-01-28T01:18:54;100651.84;;;2.85;nan
58753;BME280;44525;46.052;13.610;2023-01-28T01:21:22;100639.25;;;2.73;nan
58753;BME280;44525;46.052;13.610;2023-01-28T01:23:48;100647.97;;;2.38;nan
58753;BME280;44525;46.052;13.610;2023-01-28T01:26:14;100652.69;;;2.55;nan
58753;BME280;44525;46.052;13.610;2023-01-28T01:28:40;100655.28;;;2.31;nan
58753;BME280;44525;46.052;13.610;2023-01-28T01:31:09;100651.13;;;2.17;nan
58753;BME280;44525;46.052;13.610;2023-01-28T01:33:34;100656.78;;;2.08;nan
58753;BME280;44525;46.052;13.610;2023-01-28T01:36:00;100661.47;;;2.13;nan
58753;BME280;44525;46.052;13.610;2023-01-28T01:38:26;100671.09;;;2.02;nan
58753;BME280;44525;46.052;13.610;2023-01-28T01:40:55;100668.84;;;1.81;nan
58753;BME280;44525;46.052;13.610;2023-01-28T01:43:22;100673.75;;;1.84;nan
58753;BME280;44525;46.052;13.610;2023-01-28T01:45:59;100673.00;;;1.58;nan
58753;BME280;44525;46.052;13.610;2023-01-28T01:48:31;100677.81;;;1.24;nan
58753;BME280;44525;46.052;13.610;2023-01-28T01:51:10;100689.19;;;1.63;nan
58753;BME280;44525;46.052;13.610;2023-01-28T01:53:39;100683.44;;;1.85;nan
58753;BME280;44525;46.052;13.610;2023-01-28T01:56:08;100692.47;;;1.65;nan
58753;BME280;44525;46.052;13.610;2023-01-28T01:58:37;100689.97;;;1.45;nan
58753;BME280;44525;46.052;13.610;2023-01-28T02:01:04;100696.53;;;0.92;nan
58753;BME280;44525;46.052;13.610;2023-01-28T02:03:37;100696.97;;;0.89;nan
58753;BME280;44525;46.052;13.610;2023-01-28T02:06:05;100702.75;;;0.86;nan
58753;BME280;44525;46.052;13.610;2023-01-28T02:08:31;100709.88;;;0.60;nan
58753;BME280;44525;46.052;13.610;2023-01-28T02:11:07;100703.88;;;1.03;nan
58753;BME280;44525;46.052;13.610;2023-01-28T02:13:38;100707.16;;;0.67;nan
58753;BME280;44525;46.052;13.610;2023-01-28T02:16:05;100704.00;;;0.83;nan
58753;BME280;44525;46.052;13.610;2023-01-28T02:18:32;100697.22;;;1.13;nan
58753;BME280;44525;46.052;13.610;2023-01-28T02:23:44;100692.25;;;1.16;nan
58753;BME280;44525;46.052;13.610;2023-01-28T02:29:16;100703.53;;;0.93;nan
58753;BME280;44525;46.052;13.610;2023-01-28T02:34:38;100697.25;;;1.06;nan
58753;BME280;44525;46.052;13.610;2023-01-28T02:37:24;100688.97;;;1.14;nan
58753;BME280;44525;46.052;13.610;2023-01-28T02:39:55;100702.34;;;0.82;nan
58753;BME280;44525;46.052;13.610;2023-01-28T02:42:26;100705.28;;;0.74;nan
58753;BME280;44525;46.052;13.610;2023-01-28T02:44:53;100694.41;;;0.69;nan
58753;BME280;44525;46.052;13.610;2023-01-28T02:47:18;100704.13;;;0.95;nan
58753;BME280;44525;46.052;13.610;2023-01-28T02:50:06;100698.53;;;1.03;nan
58753;BME280;44525;46.052;13.610;2023-01-28T02:58:37;100704.59;;;1.17;nan
58753;BME280;44525;46.052;13.610;2023-01-28T03:06:23;100704.97;;;1.21;nan
58753;BME280;44525;46.052;13.610;2023-01-28T03:08:55;100718.56;;;0.49;nan
58753;BME280;44525;46.052;13.610;2023-01-28T03:11:45;100721.31;;;0.22;nan
58753;BME280;44525;46.052;13.610;2023-01-28T03:14:31;100717.41;;;0.25;nan
58753;BME280;44525;46.052;13.610;2023-01-28T03:18:09;100723.94;;;0.42;nan
58753;BME280;44525;46.052;13.610;2023-01-28T03:20:28;100723.31;;;0.85;nan
58753;BME280;44525;46.052;13.610;2023-01-28T03:23:20;100727.38;;;0.95;nan
58753;BME280;44525;46.052;13.610;2023-01-28T03:26:06;100737.25;;;0.94;nan
58753;BME280;44525;46.052;13.610;2023-01-28T03:28:53;100730.91;;;0.43;nan
58753;BME280;44525;46.052;13.610;2023-01-28T03:31:38;100730.25;;;0.55;nan
58753;BME280;44525;46.052;13.610;2023-01-28T03:34:23;100732.75;;;0.88;nan
58753;BME280;44525;46.052;13.610;2023-01-28T03:37:07;100742.44;;;0.89;nan
58753;BME280;44525;46.052;13.610;2023-01-28T03:39:34;100744.28;;;0.37;nan
58753;BME280;44525;46.052;13.610;2023-01-28T03:44:28;100745.81;;;0.12;nan
58753;BME280;44525;46.052;13.610;2023-01-28T03:47:13;100745.88;;;0.51;nan
58753;BME280;44525;46.052;13.610;2023-01-28T03:49:40;100749.22;;;0.40;nan
58753;BME280;44525;46.052;13.610;2023-01-28T03:52:05;100746.13;;;0.43;nan
58753;BME280;44525;46.052;13.610;2023-01-28T03:54:31;100748.44;;;0.78;nan
58753;BME280;44525;46.052;13.610;2023-01-28T03:56:56;100753.13;;;0.89;nan
58753;BME280;44525;46.052;13.610;2023-01-28T03:59:21;100757.47;;;0.77;nan
58753;BME280;44525;46.052;13.610;2023-01-28T04:01:47;100759.44;;;0.56;nan
58753;BME280;44525;46.052;13.610;2023-01-28T04:04:15;100754.38;;;0.34;nan
58753;BME280;44525;46.052;13.610;2023-01-28T04:06:49;100750.25;;;0.39;nan
58753;BME280;44525;46.052;13.610;2023-01-28T04:09:15;100756.41;;;0.32;nan
58753;BME280;44525;46.052;13.610;2023-01-28T04:11:40;100756.81;;;0.43;nan
58753;BME280;44525;46.052;13.610;2023-01-28T04:14:05;100756.25;;;0.27;nan
58753;BME280;44525;46.052;13.610;2023-01-28T04:16:31;100764.00;;;0.42;nan
58753;BME280;44525;46.052;13.610;2023-01-28T04:18:56;100756.66;;;0.24;nan
58753;BME280;44525;46.052;13.610;2023-01-28T04:21:22;100770.03;;;0.24;nan
58753;BME280;44525;46.052;13.610;2023-01-28T04:23:48;100760.16;;;0.25;nan
58753;BME280;44525;46.052;13.610;2023-01-28T04:26:14;100769.03;;;0.12;nan
58753;BME280;44525;46.052;13.610;2023-01-28T04:28:39;100765.53;;;0.18;nan
58753;BME280;44525;46.052;13.610;2023-01-28T04:31:04;100775.13;;;0.32;nan
58753;BME280;44525;46.052;13.610;2023-01-28T04:33:30;100781.31;;;0.33;nan
58753;BME280;44525;46.052;13.610;2023-01-28T04:35:55;100769.25;;;0.04;nan
58753;BME280;44525;46.052;13.610;2023-01-28T04:38:20;100777.03;;;0.12;nan
58753;BME280;44525;46.052;13.610;2023-01-28T04:40:50;100776.84;;;-0.13;nan
58753;BME280;44525;46.052;13.610;2023-01-28T04:43:16;100783.63;;;-0.24;nan
58753;BME280;44525;46.052;13.610;2023-01-28T04:45:42;100779.94;;;-0.50;nan
58753;BME280;44525;46.052;13.610;2023-01-28T04:48:07;100788.56;;;-0.34;nan
58753;BME280;44525;46.052;13.610;2023-01-28T04:50:32;100793.91;;;-0.21;nan
58753;BME280;44525;46.052;13.610;2023-01-28T04:52:58;100791.25;;;-0.14;nan
58753;BME280;44525;46.052;13.610;2023-01-28T04:55:23;100794.69;;;0.13;nan
58753;BME280;44525;46.052;13.610;2023-01-28T04:57:48;100804.56;;;0.12;nan
58753;BME280;44525;46.052;13.610;2023-01-28T05:00:14;100809.09;;;-0.08;nan
58753;BME280;44525;46.052;13.610;2023-01-28T05:02:39;100809.50;;;-0.18;nan
58753;BME280;44525;46.052;13.610;2023-01-28T05:05:05;100804.38;;;0.01;nan
58753;BME280;44525;46.052;13.610;2023-01-28T05:07:33;100804.75;;;0.17;nan
58753;BME280;44525;46.052;13.610;2023-01-28T05:09:58;100809.09;;;-0.08;nan
58753;BME280;44525;46.052;13.610;2023-01-28T05:12:24;100811.16;;;-0.30;nan
58753;BME280;44525;46.052;13.610;2023-01-28T05:14:49;100824.88;;;-0.40;nan
58753;BME280;44525;46.052;13.610;2023-01-28T05:17:14;100821.00;;;-0.44;nan
58753;BME280;44525;46.052;13.610;2023-01-28T05:19:40;100820.72;;;-0.69;nan
58753;BME280;44525;46.052;13.610;2023-01-28T05:22:05;100822.19;;;-0.74;nan
58753;BME280;44525;46.052;13.610;2023-01-28T05:24:30;100825.88;;;-0.61;nan
58753;BME280;44525;46.052;13.610;2023-01-28T05:26:55;100825.69;;;-0.60;nan
58753;BME280;44525;46.052;13.610;2023-01-28T05:29:21;100832.28;;;-0.29;nan
58753;BME280;44525;46.052;13.610;2023-01-28T05:31:46;100833.75;;;-0.13;nan
58753;BME280;44525;46.052;13.610;2023-01-28T05:34:12;100832.28;;;-0.15;nan
58753;BME280;44525;46.052;13.610;2023-01-28T05:36:37;100837.00;;;0.03;nan
58753;BME280;44525;46.052;13.610;2023-01-28T05:39:05;100837.66;;;0.05;nan
58753;BME280;44525;46.052;13.610;2023-01-28T05:41:32;100848.13;;;-0.21;nan
58753;BME280;44525;46.052;13.610;2023-01-28T05:43:57;100844.81;;;0.04;nan
58753;BME280;44525;46.052;13.610;2023-01-28T05:46:22;100848.13;;;-0.07;nan
58753;BME280;44525;46.052;13.610;2023-01-28T05:48:49;100860.00;;;-0.16;nan
58753;BME280;44525;46.052;13.610;2023-01-28T05:51:15;100868.03;;;0.04;nan
58753;BME280;44525;46.052;13.610;2023-01-28T05:53:40;100866.41;;;0.09;nan
58753;BME280;44525;46.052;13.610;2023-01-28T05:56:06;100862.50;;;-0.08;nan
58753;BME280;44525;46.052;13.610;2023-01-28T05:58:31;100872.72;;;-0.32;nan
58753;BME280;44525;46.052;13.610;2023-01-28T06:00:57;100874.94;;;-0.56;nan
58753;BME280;44525;46.052;13.610;2023-01-28T06:03:22;100875.75;;;-0.55;nan
58753;BME280;44525;46.052;13.610;2023-01-28T06:05:47;100880.03;;;-0.67;nan
58753;BME280;44525;46.052;13.610;2023-01-28T06:08:13;100878.03;;;-0.39;nan
58753;BME280;44525;46.052;13.610;2023-01-28T06:10:38;100871.94;;;-0.32;nan
58753;BME280;44525;46.052;13.610;2023-01-28T06:13:03;100881.69;;;-0.60;nan
58753;BME280;44525;46.052;13.610;2023-01-28T06:15:29;100886.59;;;-0.70;nan
58753;BME280;44525;46.052;13.610;2023-01-28T06:17:54;100889.81;;;-0.81;nan
58753;BME280;44525;46.052;13.610;2023-01-28T06:20:19;100880.16;;;-0.96;nan
58753;BME280;44525;46.052;13.610;2023-01-28T06:22:45;100890.63;;;-0.88;nan
58753;BME280;44525;46.052;13.610;2023-01-28T06:25:10;100890.41;;;-0.93;nan
58753;BME280;44525;46.052;13.610;2023-01-28T06:27:36;100899.47;;;-0.80;nan
58753;BME280;44525;46.052;13.610;2023-01-28T06:30:01;100898.75;;;-0.54;nan
58753;BME280;44525;46.052;13.610;2023-01-28T06:32:27;100910.50;;;-0.97;nan
58753;BME280;44525;46.052;13.610;2023-01-28T06:34:52;100905.75;;;-1.01;nan
58753;BME280;44525;46.052;13.610;2023-01-28T06:37:18;100911.31;;;-0.96;nan
58753;BME280;44525;46.052;13.610;2023-01-28T06:39:43;100914.28;;;-1.19;nan
58753;BME280;44525;46.052;13.610;2023-01-28T06:42:08;100915.69;;;-0.82;nan
58753;BME280;44525;46.052;13.610;2023-01-28T06:44:34;100918.41;;;-1.10;nan
58753;BME280;44525;46.052;13.610;2023-01-28T06:46:59;100922.16;;;-0.98;nan
58753;BME280;44525;46.052;13.610;2023-01-28T06:49:24;100926.56;;;-1.18;nan
58753;BME280;44525;46.052;13.610;2023-01-28T06:51:50;100924.78;;;-1.39;nan
58753;BME280;44525;46.052;13.610;2023-01-28T06:54:15;100926.50;;;-0.90;nan
58753;BME280;44525;46.052;13.610;2023-01-28T06:56:40;100929.22;;;-1.18;nan
58753;BME280;44525;46.052;13.610;2023-01-28T06:59:06;100938.69;;;-1.16;nan
58753;BME280;44525;46.052;13.610;2023-01-28T07:01:32;100933.34;;;-0.81;nan
58753;BME280;44525;46.052;13.610;2023-01-28T07:03:57;100929.81;;;-0.88;nan
58753;BME280;44525;46.052;13.610;2023-01-28T07:06:22;100938.69;;;-1.16;nan
58753;BME280;44525;46.052;13.610;2023-01-28T07:08:48;100932.81;;;-0.98;nan
58753;BME280;44525;46.052;13.610;2023-01-28T07:11:14;100926.69;;;-0.98;nan
58753;BME280;44525;46.052;13.610;2023-01-28T07:13:40;100936.22;;;-0.76;nan
58753;BME280;44525;46.052;13.610;2023-01-28T07:16:06;100930.53;;;-0.59;nan
58753;BME280;44525;46.052;13.610;2023-01-28T07:18:31;100924.91;;;-0.29;nan
58753;BME280;44525;46.052;13.610;2023-01-28T07:20:57;100940.50;;;-0.20;nan
58753;BME280;44525;46.052;13.610;2023-01-28T07:23:22;100949.25;;;-0.46;nan
58753;BME280;44525;46.052;13.610;2023-01-28T07:25:47;100949.41;;;-0.61;nan
58753;BME280;44525;46.052;13.610;2023-01-28T07:28:13;100944.59;;;-0.24;nan
58753;BME280;44525;46.052;13.610;2023-01-28T07:30:40;100951.13;;;-0.40;nan
58753;BME280;44525;46.052;13.610;2023-01-28T07:33:06;100956.44;;;-0.53;nan
58753;BME280;44525;46.052;13.610;2023-01-28T07:35:31;100948.19;;;-0.58;nan
58753;BME280;44525;46.052;13.610;2023-01-28T07:37:58;100948.72;;;-0.21;nan
58753;BME280;44525;46.052;13.610;2023-01-28T07:40:25;100956.16;;;0.04;nan
58753;BME280;44525;46.052;13.610;2023-01-28T07:42:50;100957.41;;;0.14;nan
58753;BME280;44525;46.052;13.610;2023-01-28T07:45:17;100953.25;;;-0.08;nan
58753;BME280;44525;46.052;13.610;2023-01-28T07:47:42;100962.53;;;-0.04;nan
58753;BME280;44525;46.052;13.610;2023-01-28T07:50:10;100959.47;;;0.32;nan
58753;BME280;44525;46.052;13.610;2023-01-28T07:52:37;100961.53;;;0.37;nan
58753;BME280;44525;46.052;13.610;2023-01-28T07:55:09;100962.75;;;0.55;nan
58753;BME280;44525;46.052;13.610;2023-01-28T07:57:34;100958.44;;;0.33;nan
58753;BME280;44525;46.052;13.610;2023-01-28T07:59:59;100966.44;;;0.47;nan
58753;BME280;44525;46.052;13.610;2023-01-28T08:02:25;100965.44;;;0.68;nan
58753;BME280;44525;46.052;13.610;2023-01-28T08:04:50;100961.50;;;0.57;nan
58753;BME280;44525;46.052;13.610;2023-01-28T08:07:15;100958.00;;;0.77;nan
58753;BME280;44525;46.052;13.610;2023-01-28T08:09:41;100969.75;;;0.76;nan
58753;BME280;44525;46.052;13.610;2023-01-28T08:12:06;100968.03;;;1.08;nan
58753;BME280;44525;46.052;13.610;2023-01-28T08:14:32;100959.97;;;1.15;nan
58753;BME280;44525;46.052;13.610;2023-01-28T08:16:57;100968.00;;;1.21;nan
58753;BME280;44525;46.052;13.610;2023-01-28T08:19:22;100964.34;;;1.54;nan
58753;BME280;44525;46.052;13.610;2023-01-28T08:21:48;100961.75;;;1.80;nan
58753;BME280;44525;46.052;13.610;2023-01-28T08:24:13;100963.75;;;1.91;nan
58753;BME280;44525;46.052;13.610;2023-01-28T08:26:38;100959.47;;;2.15;nan
58753;BME280;44525;46.052;13.610;2023-01-28T08:29:04;100962.28;;;2.27;nan
58753;BME280;44525;46.052;13.610;2023-01-28T08:31:30;100953.78;;;2.80;nan
58753;BME280;44525;46.052;13.610;2023-01-28T08:33:55;100951.91;;;4.28;nan
58753;BME280;44525;46.052;13.610;2023-01-28T08:36:21;100941.97;;;5.52;nan
58753;BME280;44525;46.052;13.610;2023-01-28T08:38:50;100951.69;;;6.27;nan
58753;BME280;44525;46.052;13.610;2023-01-28T08:41:18;100948.84;;;5.88;nan
58753;BME280;44525;46.052;13.610;2023-01-28T08:43:43;100946.78;;;5.50;nan
58753;BME280;44525;46.052;13.610;2023-01-28T08:46:08;100962.44;;;4.41;nan
58753;BME280;44525;46.052;13.610;2023-01-28T08:48:34;100960.56;;;4.18;nan
58753;BME280;44525;46.052;13.610;2023-01-28T08:50:59;100965.91;;;3.76;nan
58753;BME280;44525;46.052;13.610;2023-01-28T08:53:25;100957.34;;;3.67;nan
58753;BME280;44525;46.052;13.610;2023-01-28T08:55:50;100965.25;;;3.62;nan
58753;BME280;44525;46.052;13.610;2023-01-28T08:58:16;100963.16;;;3.64;nan
58753;BME280;44525;46.052;13.610;2023-01-28T09:00:43;100963.22;;;3.57;nan
58753;BME280;44525;46.052;13.610;2023-01-28T09:03:09;100960.94;;;3.42;nan
58753;BME280;44525;46.052;13.610;2023-01-28T09:05:35;100964.97;;;3.51;nan
58753;BME280;44525;46.052;13.610;2023-01-28T09:08:10;100965.09;;;3.57;nan
58753;BME280;44525;46.052;13.610;2023-01-28T09:10:36;100970.47;;;3.75;nan
58753;BME280;44525;46.052;13.610;2023-01-28T09:13:09;100968.59;;;3.76;nan
58753;BME280;44525;46.052;13.610;2023-01-28T09:15:35;100958.59;;;3.95;nan
58753;BME280;44525;46.052;13.610;2023-01-28T09:18:02;100967.78;;;4.17;nan
58753;BME280;44525;46.052;13.610;2023-01-28T09:20:27;100974.47;;;4.27;nan
58753;BME280;44525;46.052;13.610;2023-01-28T09:22:53;100970.81;;;4.09;nan
58753;BME280;44525;46.052;13.610;2023-01-28T09:25:18;100966.00;;;4.11;nan
58753;BME280;44525;46.052;13.610;2023-01-28T09:27:44;100971.66;;;4.21;nan
58753;BME280;44525;46.052;13.610;2023-01-28T09:30:09;100977.00;;;4.10;nan
58753;BME280;44525;46.052;13.610;2023-01-28T09:32:35;100978.13;;;4.44;nan
58753;BME280;44525;46.052;13.610;2023-01-28T09:35:01;100975.91;;;4.65;nan
58753;BME280;44525;46.052;13.610;2023-01-28T09:37:27;100978.75;;;4.94;nan
58753;BME280;44525;46.052;13.610;2023-01-28T09:39:52;100969.97;;;4.98;nan
58753;BME280;44525;46.052;13.610;2023-01-28T09:49:50;100969.91;;;5.22;nan
58753;BME280;44525;46.052;13.610;2023-01-28T09:52:20;100970.59;;;5.41;nan
58753;BME280;44525;46.052;13.610;2023-01-28T09:54:53;100967.06;;;5.52;nan
58753;BME280;44525;46.052;13.610;2023-01-28T09:57:30;100960.91;;;5.69;nan
58753;BME280;44525;46.052;13.610;2023-01-28T10:00:00;100964.94;;;5.54;nan
58753;BME280;44525;46.052;13.610;2023-01-28T10:02:36;100967.72;;;5.59;nan
58753;BME280;44525;46.052;13.610;2023-01-28T10:10:26;100961.94;;;5.68;nan
58753;BME280;44525;46.052;13.610;2023-01-28T10:13:06;100968.59;;;5.77;nan
58753;BME280;44525;46.052;13.610;2023-01-28T10:18:12;100971.72;;;5.86;nan
58753;BME280;44525;46.052;13.610;2023-01-28T10:23:19;100958.25;;;6.14;nan
58753;BME280;44525;46.052;13.610;2023-01-28T10:25:46;100972.41;;;6.39;nan
58753;BME280;44525;46.052;13.610;2023-01-28T10:28:18;100967.88;;;6.78;nan
58753;BME280;44525;46.052;13.610;2023-01-28T10:30:46;100964.00;;;7.30;nan
58753;BME280;44525;46.052;13.610;2023-01-28T10:33:22;100964.56;;;7.77;nan
58753;BME280;44525;46.052;13.610;2023-01-28T10:35:48;100964.84;;;7.53;nan
58753;BME280;44525;46.052;13.610;2023-01-28T10:38:16;100959.84;;;7.23;nan
58753;BME280;44525;46.052;13.610;2023-01-28T10:40:44;100966.22;;;6.94;nan
58753;BME280;44525;46.052;13.610;2023-01-28T10:43:14;100970.44;;;6.85;nan
58753;BME280;44525;46.052;13.610;2023-01-28T10:48:28;100959.63;;;5.59;nan
58753;BME280;44525;46.052;13.610;2023-01-28T10:50:55;100965.84;;;5.89;nan
58753;BME280;44525;46.052;13.610;2023-01-28T10:53:41;100969.44;;;5.94;nan
58753;BME280;44525;46.052;13.610;2023-01-28T10:56:08;100966.09;;;6.16;nan
58753;BME280;44525;46.052;13.610;2023-01-28T10:58:47;100957.44;;;6.31;nan
58753;BME280;44525;46.052;13.610;2023-01-28T11:01:14;100964.53;;;5.91;nan
58753;BME280;44525;46.052;13.610;2023-01-28T11:03:52;100961.09;;;6.08;nan
58753;BME280;44525;46.052;13.610;2023-01-28T11:06:26;100957.28;;;6.21;nan
58753;BME280;44525;46.052;13.610;2023-01-28T11:08:52;100955.41;;;6.38;nan
58753;BME280;44525;46.052;13.610;2023-01-28T11:11:23;100948.94;;;6.22;nan
58753;BME280;44525;46.052;13.610;2023-01-28T11:13:50;100950.56;;;6.57;nan
58753;BME280;44525;46.052;13.610;2023-01-28T11:16:17;100949.97;;;7.11;nan
58753;BME280;44525;46.052;13.610;2023-01-28T11:18:53;100940.72;;;8.33;nan
58753;BME280;44525;46.052;13.610;2023-01-28T11:21:21;100947.38;;;9.43;nan
58753;BME280;44525;46.052;13.610;2023-01-28T11:23:52;100936.56;;;9.74;nan
58753;BME280;44525;46.052;13.610;2023-01-28T11:26:26;100940.84;;;9.44;nan
58753;BME280;44525;46.052;13.610;2023-01-28T11:28:53;100929.38;;;8.69;nan
58753;BME280;44525;46.052;13.610;2023-01-28T11:31:20;100931.00;;;7.78;nan
58753;BME280;44525;46.052;13.610;2023-01-28T11:33:55;100930.94;;;7.23;nan
58753;BME280;44525;46.052;13.610;2023-01-28T11:36:25;100936.59;;;6.60;nan
58753;BME280;44525;46.052;13.610;2023-01-28T11:41:21;100934.19;;;6.81;nan
58753;BME280;44525;46.052;13.610;2023-01-28T11:43:49;100926.34;;;6.62;nan
58753;BME280;44525;46.052;13.610;2023-01-28T11:51:37;100926.88;;;6.42;nan
58753;BME280;44525;46.052;13.610;2023-01-28T11:57:12;100928.50;;;6.43;nan
58753;BME280;44525;46.052;13.610;2023-01-28T12:02:52;100918.88;;;6.30;nan
58753;BME280;44525;46.052;13.610;2023-01-28T12:05:27;100919.19;;;6.34;nan
58753;BME280;44525;46.052;13.610;2023-01-28T12:16:28;100916.25;;;6.19;nan
58753;BME280;44525;46.052;13.610;2023-01-28T12:37:22;100901.50;;;6.60;nan
58753;BME280;44525;46.052;13.610;2023-01-28T12:40:24;100905.59;;;6.46;nan
58753;BME280;44525;46.052;13.610;2023-01-28T12:43:05;100907.84;;;6.71;nan
58753;BME280;44525;46.052;13.610;2023-01-28T12:45:44;100904.75;;;6.62;nan
58753;BME280;44525;46.052;13.610;2023-01-28T12:48:34;100899.59;;;6.22;nan
58753;BME280;44525;46.052;13.610;2023-01-28T12:51:14;100896.97;;;6.10;nan
58753;BME280;44525;46.052;13.610;2023-01-28T12:56:18;100903.66;;;6.07;nan
58753;BME280;44525;46.052;13.610;2023-01-28T12:58:59;100908.00;;;6.25;nan
58753;BME280;44525;46.052;13.610;2023-01-28T13:01:36;100907.09;;;6.37;nan
58753;BME280;44525;46.052;13.610;2023-01-28T13:04:30;100900.22;;;6.46;nan
58753;BME280;44525;46.052;13.610;2023-01-28T13:07:03;100902.56;;;6.59;nan
58753;BME280;44525;46.052;13.610;2023-01-28T13:09:33;100907.34;;;6.35;nan
58753;BME280;44525;46.052;13.610;2023-01-28T13:12:01;100907.91;;;6.20;nan
58753;BME280;44525;46.052;13.610;2023-01-28T13:14:29;100903.66;;;6.07;nan
58753;BME280;44525;46.052;13.610;2023-01-28T13:17:06;100905.38;;;6.30;nan
58753;BME280;44525;46.052;13.610;2023-01-28T13:19:40;100911.97;;;6.23;nan
58753;BME280;44525;46.052;13.610;2023-01-28T13:22:10;100908.53;;;6.27;nan
58753;BME280;44525;46.052;13.610;2023-01-28T13:24:36;100912.22;;;6.21;nan
58753;BME280;44525;46.052;13.610;2023-01-28T13:27:11;100916.34;;;6.41;nan
58753;BME280;44525;46.052;13.610;2023-01-28T13:29:37;100911.16;;;6.05;nan
58753;BME280;44525;46.052;13.610;2023-01-28T13:32:29;100919.28;;;5.93;nan
58753;BME280;44525;46.052;13.610;2023-01-28T13:35:01;100916.72;;;5.99;nan
58753;BME280;44525;46.052;13.610;2023-01-28T13:37:43;100916.47;;;6.00;nan
58753;BME280;44525;46.052;13.610;2023-01-28T13:42:37;100919.75;;;6.19;nan
58753;BME280;44525;46.052;13.610;2023-01-28T13:45:32;100933.66;;;6.62;nan
58753;BME280;44525;46.052;13.610;2023-01-28T13:50:52;100925.66;;;7.33;nan
58753;BME280;44525;46.052;13.610;2023-01-28T13:55:58;100934.88;;;6.93;nan
58753;BME280;44525;46.052;13.610;2023-01-28T14:03:47;100944.25;;;6.68;nan
58753;BME280;44525;46.052;13.610;2023-01-28T14:06:45;100937.88;;;7.14;nan
58753;BME280;44525;46.052;13.610;2023-01-28T14:18:36;100953.19;;;6.35;nan
58753;BME280;44525;46.052;13.610;2023-01-28T14:21:10;100953.28;;;6.40;nan
58753;BME280;44525;46.052;13.610;2023-01-28T14:23:38;100955.66;;;6.37;nan
58753;BME280;44525;46.052;13.610;2023-01-28T14:26:20;100955.16;;;6.40;nan
58753;BME280;44525;46.052;13.610;2023-01-28T14:29:09;100958.94;;;6.56;nan
58753;BME280;44525;46.052;13.610;2023-01-28T14:31:39;100953.84;;;7.87;nan
58753;BME280;44525;46.052;13.610;2023-01-28T14:34:18;100957.84;;;8.12;nan
58753;BME280;44525;46.052;13.610;2023-01-28T14:36:47;100952.03;;;7.70;nan
58753;BME280;44525;46.052;13.610;2023-01-28T14:39:28;100966.94;;;7.29;nan
58753;BME280;44525;46.052;13.610;2023-01-28T14:41:57;100966.69;;;6.69;nan
58753;BME280;44525;46.052;13.610;2023-01-28T14:44:39;100968.50;;;6.01;nan
58753;BME280;44525;46.052;13.610;2023-01-28T14:47:20;100970.47;;;5.76;nan
58753;BME280;44525;46.052;13.610;2023-01-28T14:49:59;100977.34;;;5.84;nan
58753;BME280;44525;46.052;13.610;2023-01-28T14:53:01;100981.09;;;5.54;nan
58753;BME280;44525;46.052;13.610;2023-01-28T14:55:57;100979.97;;;5.79;nan
58753;BME280;44525;46.052;13.610;2023-01-28T14:58:28;100988.25;;;5.89;nan
58753;BME280;44525;46.052;13.610;2023-01-28T15:00:58;100979.38;;;5.77;nan
58753;BME280;44525;46.052;13.610;2023-01-28T15:03:25;100995.06;;;5.39;nan
58753;BME280;44525;46.052;13.610;2023-01-28T15:06:11;100988.25;;;5.49;nan
58753;BME280;44525;46.052;13.610;2023-01-28T15:08:37;100994.44;;;5.49;nan